createdAt,value
2019-01-10T00:00:20.747Z,99.90
2019-01-10T00:02:49.090Z,99.90
2019-01-10T00:05:17.485Z,99.90
2019-01-10T00:07:45.866Z,99.90
2019-01-10T00:10:15.902Z,99.90
2019-01-10T00:12:44.283Z,99.90
2019-01-10T00:15:15.384Z,99.90
2019-01-10T00:17:43.791Z,99.90
2019-01-10T00:20:13.103Z,99.90
2019-01-10T00:22:41.502Z,99.90
2019-01-10T00:25:11.830Z,99.90
2019-01-10T00:27:40.226Z,99.90
2019-01-10T00:30:12.015Z,99.90
2019-01-10T00:32:40.405Z,99.90
2019-01-10T00:35:09.919Z,99.90
2019-01-10T00:37:38.293Z,99.90
2019-01-10T00:40:12.446Z,99.90
2019-01-10T00:42:49.281Z,99.90
2019-01-10T00:45:15.718Z,99.90
2019-01-10T00:47:44.100Z,99.90
2019-01-10T00:50:17.834Z,99.90
2019-01-10T00:52:46.219Z,99.90
2019-01-10T00:55:14.622Z,99.90
2019-01-10T00:57:43.179Z,99.90
2019-01-10T01:00:22.336Z,99.90
2019-01-10T01:02:50.742Z,99.90
2019-01-10T01:05:19.202Z,99.90
2019-01-10T01:07:47.664Z,99.90
2019-01-10T01:10:23.671Z,99.90
2019-01-10T01:12:58.386Z,99.90
2019-01-10T01:15:22.043Z,99.90
2019-01-10T01:17:50.440Z,99.90
2019-01-10T01:20:23.706Z,99.90
2019-01-10T01:22:52.113Z,99.90
2019-01-10T01:25:20.480Z,99.90
2019-01-10T01:27:48.866Z,99.90
2019-01-10T01:30:19.299Z,99.90
2019-01-10T01:32:47.692Z,99.90
2019-01-10T01:35:16.560Z,99.90
2019-01-10T01:37:45.021Z,99.90
2019-01-10T01:40:18.234Z,99.90
2019-01-10T01:42:46.894Z,99.90
2019-01-10T01:45:17.045Z,99.90
2019-01-10T01:47:45.451Z,99.90
2019-01-10T01:50:16.354Z,99.90
2019-01-10T01:52:44.747Z,99.90
2019-01-10T01:55:13.147Z,99.90
2019-01-10T01:57:41.619Z,99.90
2019-01-10T02:00:20.619Z,99.90
2019-01-10T02:02:49.008Z,99.90
2019-01-10T02:05:17.418Z,99.90
2019-01-10T02:07:45.797Z,99.90
2019-01-10T02:10:17.102Z,99.90
2019-01-10T02:12:45.461Z,99.90
2019-01-10T02:15:14.340Z,99.90
2019-01-10T02:17:48.843Z,99.90
2019-01-10T02:20:12.998Z,99.90
2019-01-10T02:22:41.395Z,99.90
2019-01-10T02:25:11.797Z,99.90
2019-01-10T02:27:40.215Z,99.90
2019-01-10T02:30:11.938Z,99.90
2019-01-10T02:32:40.344Z,99.90
2019-01-10T02:35:08.899Z,99.90
2019-01-10T02:37:37.319Z,99.90
2019-01-10T02:40:07.707Z,99.90
2019-01-10T02:42:36.077Z,99.90
2019-01-10T02:45:07.324Z,99.90
2019-01-10T02:47:35.714Z,99.90
2019-01-10T02:50:07.107Z,99.90
2019-01-10T02:52:35.471Z,99.90
2019-01-10T02:55:05.391Z,99.90
2019-01-10T02:57:33.776Z,99.90
2019-01-10T03:00:02.156Z,99.90
2019-01-10T03:02:30.561Z,99.90
2019-01-10T03:04:58.940Z,99.90
2019-01-10T03:07:27.332Z,99.90
2019-01-10T03:09:55.711Z,99.90
2019-01-10T03:12:24.109Z,99.90
2019-01-10T03:14:52.500Z,99.90
2019-01-10T03:17:20.867Z,99.90
2019-01-10T03:19:49.257Z,99.90
2019-01-10T03:22:17.632Z,99.90
2019-01-10T03:24:46.037Z,99.90
2019-01-10T03:27:14.491Z,99.90
2019-01-10T03:29:42.903Z,99.90
2019-01-10T03:32:11.270Z,99.90
2019-01-10T03:34:39.662Z,99.90
2019-01-10T03:37:08.040Z,99.90
2019-01-10T03:39:36.415Z,99.90
2019-01-10T03:42:04.815Z,99.90
2019-01-10T03:44:34.460Z,99.90
2019-01-10T03:47:03.079Z,99.90
2019-01-10T03:49:31.455Z,99.90
2019-01-10T03:51:59.834Z,99.90
2019-01-10T03:54:28.232Z,99.90
2019-01-10T03:56:56.597Z,99.90
2019-01-10T03:59:24.992Z,99.90
2019-01-10T04:01:53.364Z,99.90
2019-01-10T04:04:21.785Z,99.90
2019-01-10T04:06:50.178Z,99.90
2019-01-10T04:09:18.582Z,99.90
2019-01-10T04:11:46.981Z,99.90
2019-01-10T04:14:15.355Z,99.90
2019-01-10T04:16:43.756Z,99.90
2019-01-10T04:19:12.139Z,99.90
2019-01-10T04:21:40.520Z,99.90
2019-01-10T04:24:08.885Z,99.90
2019-01-10T04:26:38.269Z,99.90
2019-01-10T04:29:06.640Z,99.90
2019-01-10T04:31:35.031Z,99.90
2019-01-10T04:34:03.414Z,99.90
2019-01-10T04:36:31.817Z,99.90
2019-01-10T04:39:00.215Z,99.90
2019-01-10T04:41:28.602Z,99.90
2019-01-10T04:44:06.718Z,99.90
2019-01-10T04:46:27.002Z,99.90
2019-01-10T04:48:55.408Z,99.90
2019-01-10T04:51:23.782Z,99.90
2019-01-10T04:53:52.200Z,99.90
2019-01-10T04:56:20.577Z,99.90
2019-01-10T04:58:48.962Z,99.90
2019-01-10T05:01:17.387Z,99.90
2019-01-10T05:03:45.766Z,99.90
2019-01-10T05:06:14.167Z,99.90
2019-01-10T05:08:42.534Z,99.90
2019-01-10T05:11:11.416Z,99.90
2019-01-10T05:13:39.984Z,99.90
2019-01-10T05:16:08.392Z,99.90
2019-01-10T05:18:36.771Z,99.90
2019-01-10T05:21:05.180Z,99.90
2019-01-10T05:23:33.583Z,99.90
2019-01-10T05:26:01.949Z,99.90
2019-01-10T05:28:30.359Z,99.90
2019-01-10T05:30:58.759Z,99.90
2019-01-10T05:33:27.166Z,99.90
2019-01-10T05:35:55.558Z,99.90
2019-01-10T05:38:23.932Z,99.90
2019-01-10T05:40:52.329Z,99.90
2019-01-10T05:43:20.708Z,99.90
2019-01-10T05:45:49.160Z,99.90
2019-01-10T05:48:17.552Z,99.90
2019-01-10T05:50:45.931Z,99.90
2019-01-10T05:53:14.390Z,99.90
2019-01-10T05:55:42.776Z,99.90
2019-01-10T05:58:11.254Z,99.90
2019-01-10T06:00:39.636Z,99.90
2019-01-10T06:03:08.035Z,99.90
2019-01-10T06:05:36.434Z,99.90
2019-01-10T06:08:04.815Z,99.90
2019-01-10T06:10:33.215Z,99.90
2019-01-10T06:13:01.630Z,99.90
2019-01-10T06:15:30.039Z,99.90
2019-01-10T06:17:58.435Z,99.90
2019-01-10T06:20:26.830Z,99.90
2019-01-10T06:22:55.195Z,99.90
2019-01-10T06:25:23.592Z,99.90
2019-01-10T06:27:51.966Z,99.90
2019-01-10T06:30:22.593Z,99.90
2019-01-10T06:32:50.971Z,99.90
2019-01-10T06:35:19.377Z,99.90
2019-01-10T06:37:47.779Z,99.90
2019-01-10T06:40:18.298Z,99.90
2019-01-10T06:42:46.759Z,99.90
2019-01-10T06:45:16.507Z,99.90
2019-01-10T06:47:44.987Z,99.90
2019-01-10T06:50:15.194Z,99.90
2019-01-10T06:52:43.591Z,99.90
2019-01-10T06:55:13.003Z,99.90
2019-01-10T06:57:41.400Z,99.90
2019-01-10T07:00:18.987Z,99.90
2019-01-10T07:02:49.044Z,99.90
2019-01-10T07:05:17.409Z,99.90
2019-01-10T07:07:45.815Z,99.90
2019-01-10T07:10:22.958Z,99.90
2019-01-10T07:12:51.358Z,99.90
2019-01-10T07:15:19.767Z,99.90
2019-01-10T07:17:49.768Z,99.90
2019-01-10T07:20:18.534Z,99.90
2019-01-10T07:22:53.418Z,99.90
2019-01-10T07:25:21.825Z,99.90
2019-01-10T07:27:50.193Z,99.90
2019-01-10T07:30:21.336Z,99.90
2019-01-10T07:32:49.741Z,99.90
2019-01-10T07:35:18.154Z,99.90
2019-01-10T07:37:51.859Z,99.90
2019-01-10T07:40:20.239Z,99.90
2019-01-10T07:42:48.631Z,99.90
2019-01-10T07:45:19.806Z,99.90
2019-01-10T07:47:48.722Z,99.90
2019-01-10T07:50:18.525Z,99.90
2019-01-10T07:52:48.812Z,99.90
2019-01-10T07:55:17.227Z,99.90
2019-01-10T07:57:45.603Z,99.90
2019-01-10T08:00:17.245Z,99.90
2019-01-10T08:02:45.619Z,99.90
2019-01-10T08:05:14.025Z,99.90
2019-01-10T08:07:42.395Z,99.90
2019-01-10T08:10:15.947Z,99.90
2019-01-10T08:12:44.354Z,99.90
2019-01-10T08:15:15.662Z,99.90
2019-01-10T08:17:44.059Z,99.90
2019-01-10T08:20:12.911Z,99.80
2019-01-10T08:22:41.302Z,99.80
2019-01-10T08:25:10.585Z,99.70
2019-01-10T08:27:38.986Z,99.60
2019-01-10T08:30:13.350Z,99.60
2019-01-10T08:32:41.738Z,99.60
2019-01-10T08:35:10.950Z,99.60
2019-01-10T08:37:39.363Z,99.60
2019-01-10T08:40:09.374Z,99.60
2019-01-10T08:42:37.767Z,99.50
2019-01-10T08:45:08.148Z,99.50
2019-01-10T08:47:36.483Z,99.30
2019-01-10T08:50:11.201Z,99.20
2019-01-10T08:52:39.589Z,99.50
2019-01-10T08:55:07.991Z,99.10
2019-01-10T08:57:36.362Z,99.10
2019-01-10T09:00:10.603Z,99.10
2019-01-10T09:02:39.017Z,99.00
2019-01-10T09:05:07.542Z,99.00
2019-01-10T09:07:35.919Z,98.90
2019-01-10T09:10:07.113Z,98.70
2019-01-10T09:12:35.492Z,98.50
2019-01-10T09:15:05.610Z,98.60
2019-01-10T09:17:34.011Z,98.60
2019-01-10T09:20:02.450Z,98.60
2019-01-10T09:22:30.851Z,98.60
2019-01-10T09:24:59.229Z,98.50
2019-01-10T09:27:27.627Z,98.50
2019-01-10T09:29:55.998Z,98.20
2019-01-10T09:32:24.411Z,98.10
2019-01-10T09:34:52.810Z,98.00
2019-01-10T09:37:21.179Z,97.70
2019-01-10T09:39:49.571Z,97.70
2019-01-10T09:42:17.943Z,97.70
2019-01-10T09:44:46.355Z,97.90
2019-01-10T09:47:14.735Z,98.10
2019-01-10T09:49:43.134Z,98.00
2019-01-10T09:52:12.209Z,97.90
2019-01-10T09:54:40.607Z,97.90
2019-01-10T09:57:09.002Z,97.70
2019-01-10T09:59:37.416Z,97.70
2019-01-10T10:02:05.823Z,97.60
2019-01-10T10:04:34.202Z,97.60
2019-01-10T10:07:02.611Z,97.50
2019-01-10T10:09:30.989Z,97.60
2019-01-10T10:11:59.395Z,97.70
2019-01-10T10:14:27.778Z,97.40
2019-01-10T10:16:56.170Z,97.20
2019-01-10T10:19:24.544Z,97.10
2019-01-10T10:21:52.993Z,97.30
2019-01-10T10:24:21.384Z,97.40
2019-01-10T10:26:49.784Z,97.40
2019-01-10T10:29:18.163Z,97.40
2019-01-10T10:31:48.510Z,97.20
2019-01-10T10:34:16.588Z,97.30
2019-01-10T10:36:44.992Z,97.40
2019-01-10T10:39:13.437Z,97.50
2019-01-10T10:41:41.821Z,97.30
2019-01-10T10:44:10.177Z,97.20
2019-01-10T10:46:38.579Z,97.10
2019-01-10T10:49:06.969Z,97.10
2019-01-10T10:51:35.350Z,97.00
2019-01-10T10:54:03.808Z,97.10
2019-01-10T10:56:33.132Z,97.10
2019-01-10T10:59:01.531Z,97.10
2019-01-10T11:01:29.902Z,97.40
2019-01-10T11:03:58.299Z,97.00
2019-01-10T11:06:26.677Z,97.00
2019-01-10T11:08:55.080Z,96.90
2019-01-10T11:11:23.455Z,96.90
2019-01-10T11:13:51.846Z,96.90
2019-01-10T11:16:20.226Z,96.80
2019-01-10T11:18:48.642Z,96.60
2019-01-10T11:21:17.030Z,96.50
2019-01-10T11:23:45.442Z,96.50
2019-01-10T11:26:13.912Z,96.40
2019-01-10T11:28:42.324Z,96.30
2019-01-10T11:31:10.704Z,96.40
2019-01-10T11:33:39.086Z,96.50
2019-01-10T11:36:07.509Z,96.60
2019-01-10T11:38:37.625Z,96.70
2019-01-10T11:41:06.000Z,96.80
2019-01-10T11:43:34.390Z,96.70
2019-01-10T11:46:02.866Z,96.70
2019-01-10T11:48:31.234Z,96.80
2019-01-10T11:50:59.644Z,96.70
2019-01-10T11:53:35.477Z,96.80
2019-01-10T11:55:58.075Z,96.80
2019-01-10T11:58:26.487Z,96.50
2019-01-10T12:00:54.868Z,96.10
2019-01-10T12:03:23.280Z,95.30
2019-01-10T12:05:53.027Z,94.00
2019-01-10T12:08:21.782Z,93.90
2019-01-10T12:10:50.194Z,93.70
2019-01-10T12:13:18.575Z,93.30
2019-01-10T12:15:47.939Z,92.90
2019-01-10T12:18:16.297Z,93.00
2019-01-10T12:20:44.717Z,92.80
2019-01-10T12:23:13.238Z,92.70
2019-01-10T12:25:41.639Z,93.00
2019-01-10T12:28:10.010Z,93.20
2019-01-10T12:30:38.402Z,93.20
2019-01-10T12:33:06.781Z,93.30
2019-01-10T12:35:35.172Z,93.30
2019-01-10T12:38:03.587Z,93.30
2019-01-10T12:40:32.230Z,93.50
2019-01-10T12:43:00.641Z,93.50
2019-01-10T12:45:29.010Z,93.70
2019-01-10T12:47:57.418Z,93.70
2019-01-10T12:50:27.726Z,93.70
2019-01-10T12:52:56.110Z,93.70
2019-01-10T12:55:24.510Z,93.90
2019-01-10T12:57:52.915Z,93.90
2019-01-10T13:00:23.249Z,94.20
2019-01-10T13:02:52.006Z,93.80
2019-01-10T13:05:20.369Z,93.80
2019-01-10T13:07:50.372Z,93.60
2019-01-10T13:10:19.511Z,93.50
2019-01-10T13:12:49.574Z,93.20
2019-01-10T13:15:22.949Z,93.00
2019-01-10T13:17:51.352Z,92.80
2019-01-10T13:20:19.727Z,92.60
2019-01-10T13:22:48.124Z,92.40
2019-01-10T13:25:18.261Z,92.00
2019-01-10T13:27:46.710Z,91.80
2019-01-10T13:30:17.375Z,91.70
2019-01-10T13:32:45.779Z,91.60
2019-01-10T13:35:14.178Z,91.40
2019-01-10T13:37:42.546Z,91.10
2019-01-10T13:40:12.185Z,91.10
2019-01-10T13:42:40.563Z,90.90
2019-01-10T13:45:11.274Z,90.70
2019-01-10T13:47:39.666Z,90.60
2019-01-10T13:50:11.479Z,90.50
2019-01-10T13:52:39.818Z,90.30
2019-01-10T13:55:11.797Z,90.30
2019-01-10T13:57:40.167Z,90.20
2019-01-10T14:00:14.502Z,90.10
2019-01-10T14:02:42.921Z,90.10
2019-01-10T14:05:11.291Z,90.20
2019-01-10T14:07:39.690Z,90.40
2019-01-10T14:10:10.910Z,90.90
2019-01-10T14:12:39.306Z,91.30
2019-01-10T14:15:11.002Z,91.60
2019-01-10T14:17:39.399Z,92.00
2019-01-10T14:20:09.529Z,92.20
2019-01-10T14:22:37.931Z,92.50
2019-01-10T14:25:06.934Z,92.80
2019-01-10T14:27:35.267Z,93.00
2019-01-10T14:30:07.037Z,93.20
2019-01-10T14:32:35.419Z,93.30
2019-01-10T14:35:04.187Z,93.50
2019-01-10T14:37:32.577Z,93.60
2019-01-10T14:40:00.943Z,93.70
2019-01-10T14:42:29.338Z,93.90
2019-01-10T14:44:57.713Z,93.90
2019-01-10T14:47:26.124Z,94.00
2019-01-10T14:49:54.496Z,94.20
2019-01-10T14:52:22.894Z,94.30
2019-01-10T14:54:51.298Z,94.30
2019-01-10T14:57:19.699Z,94.20
2019-01-10T14:59:48.131Z,94.30
2019-01-10T15:02:16.526Z,94.40
2019-01-10T15:04:45.191Z,94.40
2019-01-10T15:07:13.618Z,94.50
2019-01-10T15:09:42.035Z,94.50
2019-01-10T15:12:10.415Z,94.60
2019-01-10T15:14:38.788Z,94.60
2019-01-10T15:17:07.197Z,94.70
2019-01-10T15:19:35.596Z,94.80
2019-01-10T15:22:03.979Z,94.90
2019-01-10T15:24:32.386Z,95.10
2019-01-10T15:27:00.759Z,95.20
2019-01-10T15:29:29.165Z,95.30
2019-01-10T15:31:57.573Z,95.40
2019-01-10T15:34:25.970Z,95.50
2019-01-10T15:36:54.668Z,95.60
2019-01-10T15:39:23.063Z,95.70
2019-01-10T15:41:51.436Z,95.90
2019-01-10T15:44:19.834Z,96.00
2019-01-10T15:46:48.239Z,96.30
2019-01-10T15:49:16.633Z,96.40
2019-01-10T15:51:45.020Z,96.60
2019-01-10T15:54:13.482Z,96.80
2019-01-10T15:56:41.884Z,97.00
2019-01-10T15:59:10.254Z,97.20
2019-01-10T16:01:38.632Z,97.40
2019-01-10T16:04:07.595Z,97.50
2019-01-10T16:06:36.227Z,97.60
2019-01-10T16:09:06.779Z,97.80
2019-01-10T16:11:35.165Z,97.90
2019-01-10T16:14:03.554Z,98.00
2019-01-10T16:16:31.946Z,98.10
2019-01-10T16:19:00.324Z,98.20
2019-01-10T16:21:28.745Z,98.20
2019-01-10T16:23:57.135Z,98.40
2019-01-10T16:26:25.510Z,98.40
2019-01-10T16:28:53.917Z,98.40
2019-01-10T16:31:22.297Z,98.60
2019-01-10T16:33:50.704Z,98.70
2019-01-10T16:36:19.104Z,98.70
2019-01-10T16:38:47.764Z,98.70
2019-01-10T16:41:35.579Z,98.90
2019-01-10T16:44:03.977Z,98.90
2019-01-10T16:46:32.354Z,99.20
2019-01-10T16:49:00.764Z,99.30
2019-01-10T16:51:29.143Z,99.40
2019-01-10T16:53:57.535Z,99.80
2019-01-10T16:56:25.934Z,99.60
2019-01-10T16:58:54.334Z,99.80
2019-01-10T17:01:22.768Z,99.90
2019-01-10T17:03:51.154Z,99.90
2019-01-10T17:06:19.556Z,99.90
2019-01-10T17:08:47.942Z,99.90
2019-01-10T17:11:16.351Z,99.90
2019-01-10T17:13:44.736Z,99.90
2019-01-10T17:16:13.117Z,99.90
2019-01-10T17:18:41.522Z,99.90
2019-01-10T17:21:09.895Z,99.90
2019-01-10T17:23:38.263Z,99.90
2019-01-10T17:26:06.673Z,99.90
2019-01-10T17:28:35.048Z,99.90
2019-01-10T17:31:03.423Z,99.90
2019-01-10T17:33:31.821Z,99.90
2019-01-10T17:36:00.195Z,99.90
2019-01-10T17:38:28.570Z,99.90
2019-01-10T17:40:56.970Z,99.90
2019-01-10T17:43:25.355Z,99.90
2019-01-10T17:45:53.818Z,99.90
2019-01-10T17:48:22.185Z,99.90
2019-01-10T17:50:50.587Z,99.90
2019-01-10T17:53:19.002Z,99.90
2019-01-10T17:55:47.392Z,99.90
2019-01-10T17:58:15.964Z,99.90
2019-01-10T18:00:44.344Z,99.90
2019-01-10T18:03:12.751Z,99.90
2019-01-10T18:05:41.126Z,99.90
2019-01-10T18:08:09.518Z,99.90
2019-01-10T18:10:37.914Z,99.90
2019-01-10T18:13:06.339Z,99.90
2019-01-10T18:15:34.743Z,99.90
2019-01-10T18:18:03.131Z,99.90
2019-01-10T18:20:34.433Z,99.90
2019-01-10T18:23:02.821Z,99.90
2019-01-10T18:25:31.227Z,99.90
2019-01-10T18:27:59.603Z,99.90
2019-01-10T18:30:27.995Z,99.90
2019-01-10T18:32:56.382Z,99.90
2019-01-10T18:35:26.508Z,99.90
2019-01-10T18:37:55.142Z,99.90
2019-01-10T18:40:23.519Z,99.90
2019-01-10T18:42:51.940Z,99.90
2019-01-10T18:45:23.092Z,99.90
2019-01-10T18:47:57.016Z,99.90
2019-01-10T18:50:22.846Z,99.90
2019-01-10T18:52:51.241Z,99.90
2019-01-10T18:55:19.630Z,99.90
2019-01-10T18:57:48.011Z,99.90
2019-01-10T19:00:24.348Z,99.90
2019-01-10T19:02:52.747Z,99.90
2019-01-10T19:05:21.151Z,99.90
2019-01-10T19:07:49.538Z,99.90
2019-01-10T19:10:20.847Z,99.90
2019-01-10T19:12:49.232Z,99.90
2019-01-10T19:15:17.638Z,99.90
2019-01-10T19:17:46.019Z,99.90
2019-01-10T19:20:17.440Z,99.90
2019-01-10T19:22:45.855Z,99.90
2019-01-10T19:25:14.271Z,99.90
2019-01-10T19:27:42.673Z,99.90
2019-01-10T19:30:13.967Z,99.90
2019-01-10T19:32:42.369Z,99.90
2019-01-10T19:35:10.734Z,99.90
2019-01-10T19:37:39.134Z,99.90
2019-01-10T19:40:10.706Z,99.90
2019-01-10T19:42:39.110Z,99.90
2019-01-10T19:45:11.982Z,99.90
2019-01-10T19:47:40.387Z,99.90
2019-01-10T19:50:11.900Z,99.90
2019-01-10T19:52:40.304Z,99.90
2019-01-10T19:55:10.062Z,99.90
2019-01-10T19:57:38.448Z,99.90
2019-01-10T20:00:18.952Z,99.90
2019-01-10T20:02:48.986Z,99.90
2019-01-10T20:05:17.399Z,99.90
2019-01-10T20:07:45.790Z,99.90
2019-01-10T20:10:15.423Z,99.90
2019-01-10T20:12:45.515Z,99.90
2019-01-10T20:15:14.069Z,99.90
2019-01-10T20:17:42.540Z,99.90
2019-01-10T20:20:20.075Z,99.90
2019-01-10T20:22:48.540Z,99.90
2019-01-10T20:25:16.938Z,99.90
2019-01-10T20:27:45.328Z,99.90
2019-01-10T20:30:18.169Z,99.90
2019-01-10T20:32:46.574Z,99.90
2019-01-10T20:35:15.447Z,99.90
2019-01-10T20:37:43.918Z,99.90
2019-01-10T20:40:14.340Z,99.90
2019-01-10T20:42:42.749Z,99.90
2019-01-10T20:45:11.140Z,99.90
2019-01-10T20:47:39.554Z,99.90
2019-01-10T20:50:18.299Z,99.90
2019-01-10T20:52:46.707Z,99.90
2019-01-10T20:55:18.911Z,99.90
2019-01-10T20:57:47.316Z,99.90
2019-01-10T21:00:20.923Z,99.90
2019-01-10T21:02:50.102Z,99.90
2019-01-10T21:05:18.531Z,99.90
2019-01-10T21:07:48.200Z,99.90
2019-01-10T21:10:19.462Z,99.90
2019-01-10T21:12:48.013Z,99.90
2019-01-10T21:15:19.417Z,99.90
2019-01-10T21:17:49.217Z,99.90
2019-01-10T21:20:17.671Z,99.90
2019-01-10T21:22:47.053Z,99.90
2019-01-10T21:25:16.116Z,99.90
2019-01-10T21:27:44.502Z,99.90
2019-01-10T21:30:20.865Z,99.90
2019-01-10T21:32:50.417Z,99.90
2019-01-10T21:35:19.431Z,99.90
2019-01-10T21:37:47.824Z,99.90
2019-01-10T21:40:21.045Z,99.90
2019-01-10T21:42:50.311Z,99.90
2019-01-10T21:45:19.237Z,99.90
2019-01-10T21:47:47.679Z,99.90
2019-01-10T21:50:18.669Z,99.90
2019-01-10T21:52:47.172Z,99.90
2019-01-10T21:55:15.566Z,99.90
2019-01-10T21:57:44.025Z,99.90
2019-01-10T22:00:18.704Z,99.90
2019-01-10T22:02:47.188Z,99.90
2019-01-10T22:05:15.610Z,99.90
2019-01-10T22:07:44.043Z,99.90
2019-01-10T22:10:12.880Z,99.90
2019-01-10T22:12:41.368Z,99.90
2019-01-10T22:15:12.325Z,99.90
2019-01-10T22:17:40.715Z,99.90
2019-01-10T22:20:17.808Z,99.90
2019-01-10T22:22:46.229Z,99.90
2019-01-10T22:25:14.744Z,99.90
2019-01-10T22:27:43.173Z,99.90
2019-01-10T22:30:20.368Z,99.90
2019-01-10T22:32:48.758Z,99.90
2019-01-10T22:35:18.823Z,99.90
2019-01-10T22:37:47.258Z,99.90
2019-01-10T22:40:18.242Z,99.90
2019-01-10T22:42:46.654Z,99.90
2019-01-10T22:45:15.678Z,99.90
2019-01-10T22:47:44.118Z,99.90
2019-01-10T22:50:18.580Z,99.90
2019-01-10T22:52:46.999Z,99.90
2019-01-10T22:55:15.855Z,99.90
2019-01-10T22:57:44.398Z,99.90
2019-01-10T23:00:55.383Z,99.90
2019-01-10T23:03:23.820Z,99.90
2019-01-10T23:05:52.206Z,99.90
2019-01-10T23:08:20.574Z,99.90
2019-01-10T23:10:50.195Z,99.90
2019-01-10T23:13:18.581Z,99.90
2019-01-10T23:15:47.016Z,99.90
2019-01-10T23:18:15.372Z,99.90
2019-01-10T23:20:43.747Z,99.90
2019-01-10T23:23:13.104Z,99.90
2019-01-10T23:25:41.519Z,99.90
2019-01-10T23:28:11.040Z,99.90
2019-01-10T23:30:47.432Z,99.90
2019-01-10T23:33:35.252Z,99.90
2019-01-10T23:36:03.710Z,99.90
2019-01-10T23:38:32.246Z,99.90
2019-01-10T23:41:00.723Z,99.90
2019-01-10T23:43:29.133Z,99.90
2019-01-10T23:45:57.517Z,99.90
2019-01-10T23:48:25.912Z,99.90
2019-01-10T23:50:54.287Z,99.90
2019-01-10T23:53:22.696Z,99.90
2019-01-10T23:55:51.083Z,99.90
2019-01-10T23:58:19.630Z,99.90
